createdAt,value
2018-02-08T00:00:58.838Z,42.40
2018-02-08T00:01:58.802Z,43.00
2018-02-08T00:02:58.760Z,44.60
2018-02-08T00:03:58.757Z,47.00
2018-02-08T00:04:58.701Z,52.30
2018-02-08T00:05:58.675Z,43.60
2018-02-08T00:06:58.637Z,44.00
2018-02-08T00:07:58.606Z,44.50
2018-02-08T00:08:58.616Z,46.10
2018-02-08T00:09:58.550Z,42.70
2018-02-08T00:10:58.509Z,45.60
2018-02-08T00:11:58.479Z,52.20
2018-02-08T00:12:58.445Z,49.50
2018-02-08T00:13:58.430Z,46.00
2018-02-08T00:14:58.394Z,45.30
2018-02-08T00:15:58.352Z,42.80
2018-02-08T00:16:58.325Z,46.50
2018-02-08T00:17:58.304Z,50.10
2018-02-08T00:18:58.270Z,51.40
2018-02-08T00:19:58.235Z,47.20
2018-02-08T00:20:58.207Z,48.50
2018-02-08T00:21:58.168Z,51.90
2018-02-08T00:22:58.197Z,50.20
2018-02-08T00:23:58.106Z,49.40
2018-02-08T00:24:58.076Z,48.90
2018-02-08T00:25:58.042Z,55.00
2018-02-08T00:26:58.009Z,48.90
2018-02-08T00:27:57.973Z,49.60
2018-02-08T00:28:57.963Z,52.10
2018-02-08T00:29:57.911Z,51.40
2018-02-08T00:30:57.882Z,47.80
2018-02-08T00:31:57.851Z,49.80
2018-02-08T00:32:57.814Z,48.10
2018-02-08T00:33:57.796Z,47.70
2018-02-08T00:34:57.768Z,44.70
2018-02-08T00:35:57.719Z,46.60
2018-02-08T00:36:57.727Z,53.20
2018-02-08T00:37:57.658Z,51.80
2018-02-08T00:38:57.626Z,49.60
2018-02-08T00:39:57.597Z,50.80
2018-02-08T00:40:57.561Z,54.10
2018-02-08T00:41:57.556Z,46.50
2018-02-08T00:42:57.510Z,53.50
2018-02-08T00:43:57.482Z,53.20
2018-02-08T00:44:57.753Z,50.60
2018-02-08T00:45:57.407Z,49.40
2018-02-08T00:46:57.394Z,57.30
2018-02-08T00:47:57.387Z,53.10
2018-02-08T00:48:57.315Z,54.70
2018-02-08T00:49:57.310Z,52.30
2018-02-08T00:50:57.247Z,49.10
2018-02-08T00:51:57.223Z,47.10
2018-02-08T00:52:57.204Z,48.50
2018-02-08T00:53:57.155Z,48.30
2018-02-08T00:54:57.154Z,52.40
2018-02-08T00:55:57.110Z,50.50
2018-02-08T00:56:57.057Z,56.20
2018-02-08T00:57:57.028Z,54.10
2018-02-08T00:58:56.994Z,47.80
2018-02-08T00:59:56.969Z,50.00
2018-02-08T01:00:56.958Z,51.10
2018-02-08T01:01:56.918Z,49.20
2018-02-08T01:02:56.897Z,47.20
2018-02-08T01:03:56.861Z,52.50
2018-02-08T01:04:56.813Z,55.90
2018-02-08T01:05:56.788Z,57.00
2018-02-08T01:06:56.750Z,49.20
2018-02-08T01:07:56.745Z,51.30
2018-02-08T01:08:56.685Z,52.00
2018-02-08T01:09:56.664Z,50.50
2018-02-08T01:10:56.622Z,54.40
2018-02-08T01:11:56.583Z,54.30
2018-02-08T01:12:56.634Z,55.60
2018-02-08T01:13:56.616Z,54.00
2018-02-08T01:14:56.502Z,48.70
2018-02-08T01:15:56.480Z,53.60
2018-02-08T01:16:56.426Z,50.10
2018-02-08T01:17:56.411Z,53.20
2018-02-08T01:18:56.363Z,52.50
2018-02-08T01:19:56.331Z,50.50
2018-02-08T01:20:56.297Z,53.70
2018-02-08T01:21:56.302Z,60.40
2018-02-08T01:22:56.256Z,52.40
2018-02-08T01:23:56.197Z,59.90
2018-02-08T01:24:56.168Z,52.60
2018-02-08T01:25:56.138Z,52.60
2018-02-08T01:26:56.116Z,50.40
2018-02-08T01:27:56.091Z,53.70
2018-02-08T01:28:56.052Z,52.80
2018-02-08T01:29:56.028Z,51.90
2018-02-08T01:30:55.986Z,52.60
2018-02-08T01:31:55.944Z,51.80
2018-02-08T01:32:55.915Z,53.50
2018-02-08T01:33:55.879Z,55.40
2018-02-08T01:34:55.862Z,51.90
2018-02-08T01:35:55.818Z,50.00
2018-02-08T01:36:55.849Z,50.50
2018-02-08T01:37:57.312Z,53.00
2018-02-08T01:38:55.727Z,53.80
2018-02-08T01:39:55.688Z,51.40
2018-02-08T01:40:55.659Z,52.00
2018-02-08T01:41:55.636Z,56.20
2018-02-08T01:42:57.328Z,55.20
2018-02-08T01:43:55.610Z,61.60
2018-02-08T01:44:55.526Z,54.80
2018-02-08T01:45:55.500Z,53.00
2018-02-08T01:46:57.325Z,56.60
2018-02-08T01:47:55.437Z,52.90
2018-02-08T01:48:55.406Z,59.60
2018-02-08T01:49:55.371Z,57.00
2018-02-08T01:50:55.342Z,62.80
2018-02-08T01:51:55.308Z,59.80
2018-02-08T01:52:55.277Z,54.00
2018-02-08T01:53:55.245Z,62.60
2018-02-08T01:54:55.212Z,70.30
2018-02-08T01:55:55.181Z,71.10
2018-02-08T01:56:55.147Z,60.40
2018-02-08T01:57:55.116Z,66.90
2018-02-08T01:58:55.084Z,62.50
2018-02-08T01:59:55.053Z,58.40
2018-02-08T02:00:55.020Z,59.50
2018-02-08T02:01:54.988Z,55.50
2018-02-08T02:02:54.957Z,57.90
2018-02-08T02:03:54.923Z,57.80
2018-02-08T02:04:54.900Z,61.80
2018-02-08T02:05:54.859Z,54.50
2018-02-08T02:06:54.828Z,61.00
2018-02-08T02:07:54.795Z,58.00
2018-02-08T02:08:54.763Z,64.00
2018-02-08T02:09:54.731Z,65.30
2018-02-08T02:10:54.699Z,55.50
2018-02-08T02:11:54.669Z,60.80
2018-02-08T02:12:54.636Z,60.20
2018-02-08T02:13:54.603Z,55.60
2018-02-08T02:14:54.572Z,54.50
2018-02-08T02:15:54.538Z,56.00
2018-02-08T02:16:54.507Z,60.40
2018-02-08T02:17:54.474Z,60.90
2018-02-08T02:18:54.443Z,60.10
2018-02-08T02:19:54.411Z,57.10
2018-02-08T02:20:54.379Z,57.50
2018-02-08T02:21:54.347Z,54.60
2018-02-08T02:22:54.323Z,63.50
2018-02-08T02:23:54.291Z,61.50
2018-02-08T02:24:54.250Z,61.10
2018-02-08T02:25:54.213Z,57.00
2018-02-08T02:26:54.192Z,60.10
2018-02-08T02:27:54.146Z,58.00
2018-02-08T02:28:54.122Z,57.40
2018-02-08T02:29:54.088Z,58.80
2018-02-08T02:30:54.055Z,60.00
2018-02-08T02:31:54.028Z,52.20
2018-02-08T02:32:54.007Z,63.10
2018-02-08T02:33:53.964Z,57.70
2018-02-08T02:34:53.930Z,54.50
2018-02-08T02:35:53.903Z,58.80
2018-02-08T02:36:53.878Z,55.60
2018-02-08T02:37:53.840Z,60.20
2018-02-08T02:38:53.800Z,61.90
2018-02-08T02:39:53.768Z,56.60
2018-02-08T02:40:53.735Z,58.50
2018-02-08T02:41:53.700Z,53.10
2018-02-08T02:42:53.677Z,54.80
2018-02-08T02:50:40.940Z,59.20
2018-02-08T02:51:05.800Z,58.80
2018-02-08T02:52:05.770Z,59.10
2018-02-08T02:53:05.742Z,55.30
2018-02-08T02:54:05.709Z,60.80
2018-02-08T02:55:05.673Z,62.70
2018-02-08T02:56:05.643Z,59.30
2018-02-08T02:57:05.608Z,60.30
2018-02-08T02:58:05.586Z,59.80
2018-02-08T02:59:05.546Z,56.90
2018-02-08T03:00:05.519Z,54.20
2018-02-08T03:01:05.486Z,51.00
2018-02-08T03:02:05.449Z,50.10
2018-02-08T03:03:05.420Z,50.50
2018-02-08T03:04:05.384Z,52.40
2018-02-08T03:05:05.356Z,54.30
2018-02-08T03:06:05.322Z,52.70
2018-02-08T03:07:05.287Z,54.30
2018-02-08T03:08:05.259Z,56.30
2018-02-08T03:09:05.226Z,63.10
2018-02-08T03:10:05.199Z,58.30
2018-02-08T03:11:05.165Z,60.00
2018-02-08T03:12:05.131Z,57.40
2018-02-08T03:13:05.098Z,52.60
2018-02-08T03:14:05.065Z,50.80
2018-02-08T03:15:05.044Z,55.30
2018-02-08T03:25:25.929Z,60.20
2018-02-08T03:26:23.334Z,59.40
2018-02-08T03:27:23.302Z,62.80
2018-02-08T03:28:23.334Z,61.10
2018-02-08T03:29:23.265Z,64.20
2018-02-08T03:30:23.217Z,61.90
2018-02-08T03:31:23.196Z,59.30
2018-02-08T03:32:23.144Z,59.50
2018-02-08T03:33:23.111Z,55.40
2018-02-08T03:34:23.078Z,63.80
2018-02-08T03:35:23.136Z,60.80
2018-02-08T03:36:23.076Z,64.00
2018-02-08T03:37:23.005Z,60.30
2018-02-08T03:38:22.958Z,72.70
2018-02-08T03:39:22.973Z,57.50
2018-02-08T03:40:22.945Z,62.90
2018-02-08T03:41:22.924Z,62.60
2018-02-08T03:42:22.815Z,69.80
2018-02-08T03:43:23.094Z,68.80
2018-02-08T03:44:22.763Z,69.60
2018-02-08T03:45:22.990Z,64.40
2018-02-08T03:46:22.716Z,68.10
2018-02-08T03:47:22.684Z,70.30
2018-02-08T03:48:22.691Z,79.50
2018-02-08T03:49:22.594Z,78.60
2018-02-08T03:50:22.672Z,69.70
2018-02-08T03:51:22.689Z,72.70
2018-02-08T03:52:22.512Z,65.40
2018-02-08T03:53:22.511Z,70.90
2018-02-08T03:54:22.449Z,74.10
2018-02-08T03:55:22.397Z,75.00
2018-02-08T03:56:22.396Z,67.20
2018-02-08T03:57:22.331Z,67.20
2018-02-08T03:58:22.363Z,71.50
2018-02-08T03:59:22.290Z,71.40
2018-02-08T04:00:22.306Z,72.80
2018-02-08T04:01:22.259Z,72.20
2018-02-08T04:02:22.182Z,75.40
2018-02-08T04:03:22.336Z,78.10
2018-02-08T04:04:22.150Z,71.30
2018-02-08T04:05:22.085Z,72.50
2018-02-08T04:06:22.131Z,71.60
2018-02-08T04:07:22.008Z,72.00
2018-02-08T04:08:21.979Z,75.70
2018-02-08T04:09:21.970Z,70.50
2018-02-08T04:10:21.913Z,72.80
2018-02-08T04:11:21.948Z,69.90
2018-02-08T04:12:21.853Z,73.30
2018-02-08T04:13:21.846Z,73.40
2018-02-08T04:14:21.780Z,74.10
2018-02-08T04:15:21.753Z,75.90
2018-02-08T04:16:21.723Z,74.90
2018-02-08T04:17:21.732Z,71.90
2018-02-08T04:18:21.704Z,83.20
2018-02-08T04:19:21.665Z,69.80
2018-02-08T04:20:21.587Z,73.30
2018-02-08T04:21:21.619Z,73.10
2018-02-08T04:22:21.583Z,77.30
2018-02-08T04:23:21.583Z,66.60
2018-02-08T04:24:21.503Z,69.70
2018-02-08T04:25:21.431Z,65.40
2018-02-08T04:26:21.403Z,65.10
2018-02-08T04:27:21.417Z,67.20
2018-02-08T04:28:21.385Z,60.00
2018-02-08T04:29:21.333Z,66.10
2018-02-08T04:30:21.302Z,55.30
2018-02-08T04:31:21.253Z,58.90
2018-02-08T04:32:21.219Z,63.50
2018-02-08T04:33:21.220Z,60.80
2018-02-08T04:34:21.146Z,62.90
2018-02-08T04:35:21.232Z,66.00
2018-02-08T04:36:21.066Z,59.40
2018-02-08T04:37:21.331Z,61.60
2018-02-08T04:38:21.068Z,63.30
2018-02-08T04:39:20.969Z,75.30
2018-02-08T04:40:20.973Z,60.80
2018-02-08T04:41:20.999Z,67.80
2018-02-08T04:42:20.918Z,69.80
2018-02-08T04:43:20.853Z,66.60
2018-02-08T04:44:20.807Z,66.00
2018-02-08T04:45:20.834Z,70.10
2018-02-08T04:46:20.794Z,81.00
2018-02-08T04:47:20.732Z,86.10
2018-02-08T04:48:20.788Z,92.30
2018-02-08T04:49:20.658Z,84.90
2018-02-08T04:50:20.613Z,86.90
2018-02-08T04:51:20.595Z,79.10
2018-02-08T04:52:20.631Z,94.50
2018-02-08T04:53:20.533Z,87.10
2018-02-08T04:54:20.520Z,78.10
2018-02-08T04:55:20.468Z,71.00
2018-02-08T04:56:20.433Z,62.60
2018-02-08T04:57:20.422Z,60.20
2018-02-08T04:58:20.382Z,62.70
2018-02-08T04:59:20.340Z,56.00
2018-02-08T05:00:20.324Z,59.80
2018-02-08T05:01:20.302Z,64.10
2018-02-08T05:02:20.221Z,63.90
2018-02-08T05:03:20.199Z,56.80
2018-02-08T05:04:20.172Z,59.70
2018-02-08T05:05:20.162Z,61.00
2018-02-08T05:06:20.120Z,58.60
2018-02-08T05:07:20.108Z,71.50
2018-02-08T05:08:20.042Z,71.00
2018-02-08T05:09:20.008Z,72.00
2018-02-08T05:10:19.969Z,65.80
2018-02-08T05:11:19.943Z,68.90
2018-02-08T05:12:19.915Z,60.50
2018-02-08T05:13:19.865Z,59.00
2018-02-08T05:14:19.864Z,54.50
2018-02-08T05:15:19.813Z,57.60
2018-02-08T05:16:19.812Z,60.40
2018-02-08T05:17:19.741Z,61.40
2018-02-08T05:18:19.721Z,60.80
2018-02-08T05:19:19.716Z,58.00
2018-02-08T05:20:19.660Z,64.60
2018-02-08T05:21:19.682Z,59.00
2018-02-08T05:22:19.585Z,72.10
2018-02-08T05:23:19.555Z,67.70
2018-02-08T05:24:19.634Z,64.60
2018-02-08T05:25:19.488Z,62.20
2018-02-08T05:26:19.515Z,67.30
2018-02-08T05:27:19.410Z,59.80
2018-02-08T05:28:19.378Z,61.70
2018-02-08T05:29:19.346Z,68.10
2018-02-08T05:30:19.325Z,66.10
2018-02-08T05:31:19.282Z,62.20
2018-02-08T05:32:19.250Z,71.10
2018-02-08T05:33:19.229Z,66.60
2018-02-08T05:34:19.194Z,70.40
2018-02-08T05:35:19.149Z,78.50
2018-02-08T05:36:19.118Z,77.60
2018-02-08T05:37:19.084Z,70.50
2018-02-08T05:38:19.064Z,74.70
2018-02-08T05:39:19.024Z,78.50
2018-02-08T05:40:19.012Z,75.90
2018-02-08T05:41:18.957Z,77.40
2018-02-08T05:42:18.924Z,71.50
2018-02-08T05:43:18.891Z,71.60
2018-02-08T05:44:18.865Z,72.50
2018-02-08T05:45:18.886Z,70.30
2018-02-08T05:46:18.792Z,65.70
2018-02-08T05:47:18.760Z,69.80
2018-02-08T05:48:18.740Z,73.50
2018-02-08T05:49:18.706Z,61.80
2018-02-08T05:50:18.659Z,68.90
2018-02-08T05:51:18.647Z,64.40
2018-02-08T05:52:18.607Z,70.50
2018-02-08T05:53:18.574Z,71.20
2018-02-08T05:54:18.531Z,74.50
2018-02-08T05:55:18.508Z,64.50
2018-02-08T05:56:18.467Z,68.70
2018-02-08T05:57:18.445Z,65.20
2018-02-08T05:58:18.398Z,64.70
2018-02-08T05:59:18.378Z,64.00
2018-02-08T06:00:18.338Z,59.30
2018-02-08T06:01:18.313Z,63.10
2018-02-08T06:02:18.270Z,58.50
2018-02-08T06:03:18.248Z,51.10
2018-02-08T06:04:18.204Z,59.30
2018-02-08T06:05:18.187Z,54.90
2018-02-08T06:06:18.136Z,56.20
2018-02-08T06:07:18.116Z,50.50
2018-02-08T06:08:18.084Z,58.80
2018-02-08T06:09:18.040Z,61.50
2018-02-08T06:10:18.007Z,60.40
2018-02-08T06:11:17.973Z,58.80
2018-02-08T06:12:17.953Z,59.80
2018-02-08T06:13:17.921Z,63.60
2018-02-08T06:14:17.875Z,68.40
2018-02-08T06:15:17.845Z,68.20
2018-02-08T06:16:17.826Z,64.80
2018-02-08T06:17:17.778Z,64.40
2018-02-08T06:18:17.746Z,65.30
2018-02-08T06:19:17.724Z,68.10
2018-02-08T06:20:17.680Z,60.10
2018-02-08T06:21:17.660Z,71.00
2018-02-08T06:22:17.614Z,68.70
2018-02-08T06:23:17.583Z,61.60
2018-02-08T06:24:17.559Z,66.30
2018-02-08T06:25:17.529Z,67.60
2018-02-08T06:26:17.495Z,64.60
2018-02-08T06:27:17.452Z,68.40
2018-02-08T06:28:17.417Z,67.10
2018-02-08T06:29:17.972Z,67.10
2018-02-08T06:30:17.364Z,66.10
2018-02-08T06:31:17.321Z,65.60
2018-02-08T06:32:17.287Z,72.30
2018-02-08T06:33:17.257Z,58.50
2018-02-08T06:34:17.222Z,71.40
2018-02-08T06:35:17.188Z,73.00
2018-02-08T06:36:17.167Z,67.40
2018-02-08T06:37:17.129Z,78.10
2018-02-08T06:38:17.102Z,73.80
2018-02-08T06:39:17.059Z,65.00
2018-02-08T06:40:17.025Z,61.00
2018-02-08T06:41:16.992Z,62.70
2018-02-08T06:42:16.960Z,58.60
2018-02-08T06:43:16.926Z,64.70
2018-02-08T06:44:16.894Z,59.60
2018-02-08T06:45:16.875Z,61.70
2018-02-08T06:46:16.841Z,68.60
2018-02-08T06:47:16.808Z,64.30
2018-02-08T06:48:16.776Z,66.60
2018-02-08T06:49:16.731Z,66.20
2018-02-08T06:50:16.710Z,69.60
2018-02-08T06:51:16.678Z,64.10
2018-02-08T06:52:16.645Z,60.00
2018-02-08T06:53:16.613Z,62.70
2018-02-08T06:54:16.579Z,63.80
2018-02-08T06:55:16.534Z,61.20
2018-02-08T06:56:16.514Z,57.20
2018-02-08T06:57:16.471Z,68.20
2018-02-08T06:58:16.495Z,58.80
2018-02-08T06:59:16.406Z,60.30
2018-02-08T07:00:16.370Z,65.30
2018-02-08T07:01:16.339Z,64.20
2018-02-08T07:02:16.306Z,63.30
2018-02-08T07:03:16.285Z,63.00
2018-02-08T07:04:16.242Z,70.20
2018-02-08T07:05:16.207Z,68.30
2018-02-08T07:06:16.174Z,69.70
2018-02-08T07:07:16.158Z,75.30
2018-02-08T07:08:16.110Z,73.70
2018-02-08T07:09:16.079Z,69.50
2018-02-08T07:10:16.045Z,67.00
2018-02-08T07:11:16.026Z,73.00
2018-02-08T07:12:15.983Z,72.40
2018-02-08T07:13:15.960Z,64.20
2018-02-08T07:14:15.916Z,67.50
2018-02-08T07:15:15.883Z,59.10
2018-02-08T07:16:15.860Z,58.90
2018-02-08T07:17:15.830Z,61.10
2018-02-08T07:18:15.794Z,57.10
2018-02-08T07:19:15.751Z,58.20
2018-02-08T07:20:15.720Z,57.90
2018-02-08T07:21:15.686Z,56.30
2018-02-08T07:22:15.654Z,60.50
2018-02-08T07:23:15.621Z,57.10
2018-02-08T07:24:15.601Z,63.30
2018-02-08T07:25:15.557Z,61.90
2018-02-08T07:26:15.522Z,58.80
2018-02-08T07:27:15.492Z,57.20
2018-02-08T07:28:15.472Z,60.70
2018-02-08T07:29:15.448Z,55.20
2018-02-08T07:30:15.395Z,59.90
2018-02-08T07:31:15.363Z,62.30
2018-02-08T07:32:15.331Z,53.20
2018-02-08T07:33:15.298Z,58.60
2018-02-08T07:34:15.277Z,57.40
2018-02-08T07:35:15.232Z,53.30
2018-02-08T07:36:15.218Z,54.70
2018-02-08T07:37:15.168Z,49.00
2018-02-08T07:38:15.148Z,56.50
2018-02-08T07:39:15.104Z,60.50
2018-02-08T07:40:15.074Z,60.30
2018-02-08T07:41:15.040Z,56.70
2018-02-08T07:42:15.020Z,54.40
2018-02-08T07:43:14.976Z,55.30
2018-02-08T07:44:14.943Z,59.20
2018-02-08T07:45:14.911Z,49.70
2018-02-08T07:46:14.880Z,52.10
2018-02-08T07:47:14.854Z,53.50
2018-02-08T07:48:14.816Z,58.80
2018-02-08T07:49:14.782Z,55.60
2018-02-08T07:50:14.761Z,65.00
2018-02-08T07:51:14.730Z,61.60
2018-02-08T07:52:14.688Z,52.80
2018-02-08T07:53:14.653Z,63.90
2018-02-08T07:54:14.634Z,55.40
2018-02-08T07:55:14.590Z,57.70
2018-02-08T07:56:14.570Z,60.40
2018-02-08T07:57:14.539Z,62.60
2018-02-08T07:58:14.495Z,58.30
2018-02-08T07:59:14.474Z,64.10
2018-02-08T08:00:14.448Z,65.20
2018-02-08T08:01:14.400Z,63.20
2018-02-08T08:02:14.367Z,67.60
2018-02-08T08:03:14.335Z,66.40
2018-02-08T08:04:14.304Z,68.10
2018-02-08T08:05:14.272Z,67.70
2018-02-08T08:06:14.241Z,71.90
2018-02-08T08:07:14.222Z,74.00
2018-02-08T08:08:14.177Z,65.40
2018-02-08T08:09:14.148Z,62.80
2018-02-08T08:10:14.126Z,65.20
2018-02-08T08:11:14.082Z,61.10
2018-02-08T08:12:14.053Z,59.40
2018-02-08T08:13:14.035Z,58.80
2018-02-08T08:14:13.989Z,59.70
2018-02-08T08:15:13.970Z,60.70
2018-02-08T08:16:13.926Z,62.80
2018-02-08T08:17:13.894Z,57.90
2018-02-08T08:18:13.865Z,61.00
2018-02-08T08:19:13.832Z,55.30
2018-02-08T08:20:13.816Z,57.30
2018-02-08T08:21:13.773Z,61.10
2018-02-08T08:22:13.740Z,54.70
2018-02-08T08:23:13.720Z,61.40
2018-02-08T08:24:13.688Z,58.40
2018-02-08T08:25:13.658Z,60.60
2018-02-08T08:26:13.613Z,58.20
2018-02-08T08:27:13.583Z,58.80
2018-02-08T08:28:13.554Z,57.60
2018-02-08T08:29:13.523Z,55.00
2018-02-08T08:30:13.503Z,58.40
2018-02-08T08:31:13.473Z,54.00
2018-02-08T08:32:13.431Z,60.80
2018-02-08T08:33:13.411Z,60.60
2018-02-08T08:34:13.394Z,59.00
2018-02-08T08:35:13.337Z,55.50
2018-02-08T08:36:13.363Z,57.20
2018-02-08T08:37:13.291Z,54.00
2018-02-08T08:38:13.257Z,61.40
2018-02-08T08:39:13.228Z,53.90
2018-02-08T08:40:13.203Z,52.50
2018-02-08T08:41:13.168Z,54.50
2018-02-08T08:42:13.127Z,52.70
2018-02-08T08:43:13.097Z,52.10
2018-02-08T08:44:13.069Z,52.10
2018-02-08T08:45:13.036Z,53.70
2018-02-08T08:46:13.004Z,52.60
2018-02-08T08:47:12.988Z,57.40
2018-02-08T08:48:13.284Z,54.50
2018-02-08T08:49:12.929Z,51.10
2018-02-08T08:50:12.888Z,48.80
2018-02-08T08:51:12.870Z,56.60
2018-02-08T08:52:12.838Z,54.50
2018-02-08T08:53:12.812Z,53.00
2018-02-08T08:54:12.765Z,52.40
2018-02-08T08:55:12.748Z,50.80
2018-02-08T08:56:12.718Z,53.20
2018-02-08T08:57:12.686Z,55.90
2018-02-08T08:58:12.645Z,54.80
2018-02-08T08:59:12.630Z,49.90
2018-02-08T09:00:12.599Z,55.30
2018-02-08T09:01:12.556Z,57.10
2018-02-08T09:02:12.528Z,51.20
2018-02-08T09:03:12.498Z,53.00
2018-02-08T09:04:12.468Z,46.70
2018-02-08T09:05:12.451Z,48.70
2018-02-08T09:06:12.442Z,48.70
2018-02-08T09:07:12.380Z,50.00
2018-02-08T09:08:12.349Z,49.60
2018-02-08T09:09:12.331Z,47.40
2018-02-08T09:10:12.301Z,49.60
2018-02-08T09:11:12.272Z,47.10
2018-02-08T09:12:12.241Z,45.60
2018-02-08T09:13:12.212Z,47.60
2018-02-08T09:14:12.172Z,49.20
2018-02-08T09:15:12.152Z,45.80
2018-02-08T09:16:12.123Z,48.60
2018-02-08T09:17:12.098Z,47.20
2018-02-08T09:18:12.052Z,46.00
2018-02-08T09:19:12.021Z,48.90
2018-02-08T09:20:11.991Z,51.10
2018-02-08T09:21:11.963Z,48.10
2018-02-08T09:22:11.933Z,48.20
2018-02-08T09:23:11.918Z,47.90
2018-02-08T09:24:11.885Z,47.50
2018-02-08T09:25:11.843Z,48.50
2018-02-08T09:26:11.824Z,48.20
2018-02-08T09:27:11.802Z,50.30
2018-02-08T09:28:11.752Z,46.00
2018-02-08T09:29:11.723Z,44.70
2018-02-08T09:30:11.693Z,52.10
2018-02-08T09:31:11.675Z,47.60
2018-02-08T09:32:11.634Z,48.90
2018-02-08T09:33:11.606Z,45.90
2018-02-08T09:34:11.587Z,50.00
2018-02-08T09:35:11.547Z,48.00
2018-02-08T09:36:11.515Z,50.90
2018-02-08T09:37:11.487Z,46.20
2018-02-08T09:38:11.468Z,46.10
2018-02-08T09:39:11.426Z,47.90
2018-02-08T09:40:11.395Z,49.10
2018-02-08T09:41:11.366Z,48.40
2018-02-08T09:42:11.344Z,45.30
2018-02-08T09:43:11.307Z,44.00
2018-02-08T09:44:11.276Z,46.10
2018-02-08T09:45:11.247Z,47.70
2018-02-08T09:46:11.217Z,47.10
2018-02-08T09:47:11.199Z,50.60
2018-02-08T09:48:11.174Z,47.50
2018-02-08T09:49:11.131Z,48.60
2018-02-08T09:50:11.100Z,47.50
2018-02-08T09:51:11.082Z,44.50
2018-02-08T09:52:11.052Z,50.00
2018-02-08T09:53:11.013Z,46.70
2018-02-08T09:54:10.982Z,52.10
2018-02-08T09:55:10.963Z,43.90
2018-02-08T09:56:10.924Z,44.40
2018-02-08T09:57:10.895Z,41.80
2018-02-08T09:58:10.877Z,40.90
2018-02-08T09:59:10.849Z,41.40
2018-02-08T10:00:10.807Z,40.60
2018-02-08T10:01:10.781Z,43.00
2018-02-08T10:02:10.749Z,41.40
2018-02-08T10:03:10.735Z,39.50
2018-02-08T10:04:10.708Z,37.50
2018-02-08T10:05:10.668Z,36.30
2018-02-08T10:06:10.650Z,37.20
2018-02-08T10:07:10.612Z,34.70
2018-02-08T10:08:10.584Z,37.70
2018-02-08T10:09:10.569Z,38.50
2018-02-08T10:10:10.530Z,40.60
2018-02-08T10:11:10.502Z,42.20
2018-02-08T10:12:10.489Z,43.30
2018-02-08T10:13:10.449Z,37.10
2018-02-08T10:14:10.485Z,38.10
2018-02-08T10:15:10.397Z,41.50
2018-02-08T10:16:10.382Z,38.60
2018-02-08T10:17:10.345Z,41.00
2018-02-08T10:18:10.321Z,39.20
2018-02-08T10:19:10.305Z,41.30
2018-02-08T10:20:10.272Z,36.40
2018-02-08T10:21:10.254Z,41.90
2018-02-08T10:22:10.230Z,36.40
2018-02-08T10:23:10.191Z,35.80
2018-02-08T10:24:10.170Z,35.60
2018-02-08T10:25:10.144Z,33.90
2018-02-08T10:26:10.130Z,35.70
2018-02-08T10:27:10.098Z,36.10
2018-02-08T10:28:10.070Z,33.60
2018-02-08T10:29:10.046Z,33.50
2018-02-08T10:30:10.022Z,33.80
2018-02-08T10:31:10.005Z,35.30
2018-02-08T10:32:09.976Z,31.00
2018-02-08T10:33:09.950Z,33.20
2018-02-08T10:34:09.929Z,34.50
2018-02-08T10:35:09.905Z,34.80
2018-02-08T10:36:09.885Z,35.00
2018-02-08T10:37:09.860Z,34.20
2018-02-08T10:38:09.836Z,39.20
2018-02-08T10:39:09.826Z,35.70
2018-02-08T10:40:09.791Z,37.10
2018-02-08T10:41:09.769Z,33.60
2018-02-08T10:42:09.746Z,31.70
2018-02-08T10:43:09.722Z,35.80
2018-02-08T10:44:09.713Z,32.90
2018-02-08T10:45:09.678Z,31.30
2018-02-08T10:46:09.668Z,33.60
2018-02-08T10:47:09.636Z,33.30
2018-02-08T10:48:09.612Z,30.10
2018-02-08T10:49:09.593Z,29.20
2018-02-08T10:50:09.582Z,30.50
2018-02-08T10:51:09.560Z,29.60
2018-02-08T10:52:09.530Z,31.70
2018-02-08T10:53:09.508Z,31.90
2018-02-08T10:54:09.484Z,30.80
2018-02-08T10:55:09.472Z,28.00
2018-02-08T10:56:09.446Z,31.90
2018-02-08T10:57:09.527Z,28.20
2018-02-08T10:58:09.433Z,29.10
2018-02-08T10:59:09.394Z,26.10
2018-02-08T11:00:09.373Z,31.30
2018-02-08T11:01:09.344Z,29.90
2018-02-08T11:02:09.320Z,32.20
2018-02-08T11:03:09.302Z,29.70
2018-02-08T11:04:09.284Z,30.30
2018-02-08T11:05:09.274Z,30.70
2018-02-08T11:06:09.254Z,26.70
2018-02-08T11:07:09.222Z,28.30
2018-02-08T11:08:09.205Z,29.00
2018-02-08T11:09:09.197Z,31.20
2018-02-08T11:10:09.165Z,29.10
2018-02-08T11:11:09.147Z,28.70
2018-02-08T11:12:09.128Z,28.90
2018-02-08T11:13:09.110Z,27.30
2018-02-08T11:14:09.103Z,29.90
2018-02-08T11:15:09.072Z,29.50
2018-02-08T11:16:09.069Z,29.20
2018-02-08T11:17:09.034Z,28.00
2018-02-08T11:18:09.017Z,30.90
2018-02-08T11:19:09.008Z,30.50
2018-02-08T11:20:08.992Z,36.40
2018-02-08T11:21:08.961Z,34.30
2018-02-08T11:22:08.956Z,27.70
2018-02-08T11:23:08.938Z,30.10
2018-02-08T11:24:08.913Z,28.90
2018-02-08T11:25:08.903Z,31.40
2018-02-08T11:26:08.885Z,28.90
2018-02-08T11:27:08.859Z,29.40
2018-02-08T11:28:08.840Z,29.10
2018-02-08T11:29:08.833Z,28.30
2018-02-08T11:30:08.846Z,29.90
2018-02-08T11:31:08.798Z,29.80
2018-02-08T11:32:08.781Z,28.50
2018-02-08T11:33:08.763Z,29.70
2018-02-08T11:34:08.747Z,28.50
2018-02-08T11:35:08.719Z,28.90
2018-02-08T11:36:08.701Z,28.50
2018-02-08T11:37:08.685Z,29.40
2018-02-08T11:38:08.667Z,28.60
2018-02-08T11:39:08.650Z,31.60
2018-02-08T11:40:08.645Z,31.80
2018-02-08T11:41:08.628Z,30.70
2018-02-08T11:42:08.621Z,37.30
2018-02-08T11:43:08.595Z,33.00
2018-02-08T11:44:08.566Z,31.00
2018-02-08T11:45:08.563Z,29.90
2018-02-08T11:46:08.544Z,28.30
2018-02-08T11:47:08.528Z,27.40
2018-02-08T11:48:08.511Z,28.80
2018-02-08T11:49:08.481Z,26.10
2018-02-08T11:50:08.466Z,27.80
2018-02-08T11:51:08.461Z,28.60
2018-02-08T11:52:08.442Z,29.00
2018-02-08T11:53:08.422Z,28.00
2018-02-08T11:54:08.396Z,26.90
2018-02-08T11:55:08.383Z,27.90
2018-02-08T11:56:08.376Z,25.90
2018-02-08T11:57:08.359Z,25.60
2018-02-08T11:58:08.331Z,26.20
2018-02-08T11:59:08.314Z,26.90
2018-02-08T12:00:08.297Z,26.10
2018-02-08T12:01:08.281Z,25.70
2018-02-08T12:02:08.274Z,28.10
2018-02-08T12:03:08.247Z,26.90
2018-02-08T12:04:08.233Z,27.00
2018-02-08T12:05:08.213Z,28.90
2018-02-08T12:06:08.215Z,25.90
2018-02-08T12:07:08.182Z,26.40
2018-02-08T12:08:08.177Z,25.20
2018-02-08T12:09:08.149Z,25.10
2018-02-08T12:10:08.144Z,28.90
2018-02-08T12:11:08.129Z,27.30
2018-02-08T12:12:08.134Z,26.50
2018-02-08T12:13:08.086Z,27.50
2018-02-08T12:14:08.072Z,27.00
2018-02-08T12:15:08.057Z,28.10
2018-02-08T12:16:08.053Z,29.30
2018-02-08T12:17:08.029Z,28.80
2018-02-08T12:18:08.021Z,26.80
2018-02-08T12:19:07.995Z,27.60
2018-02-08T12:20:07.980Z,28.10
2018-02-08T12:21:07.969Z,27.60
2018-02-08T12:22:07.960Z,28.70
2018-02-08T12:23:07.938Z,27.60
2018-02-08T12:24:07.932Z,25.90
2018-02-08T12:25:07.918Z,27.60
2018-02-08T12:26:07.902Z,26.10
2018-02-08T12:27:07.874Z,25.30
2018-02-08T12:28:07.873Z,24.80
2018-02-08T12:29:07.859Z,26.10
2018-02-08T12:30:07.833Z,25.10
2018-02-08T12:31:07.854Z,25.80
2018-02-08T12:32:07.831Z,23.20
2018-02-08T12:33:07.792Z,28.50
2018-02-08T12:34:07.787Z,25.30
2018-02-08T12:35:07.784Z,26.50
2018-02-08T12:36:07.803Z,26.50
2018-02-08T12:37:07.769Z,24.60
2018-02-08T12:38:07.729Z,26.90
2018-02-08T12:39:07.716Z,25.50
2018-02-08T12:40:07.708Z,24.00
2018-02-08T12:41:07.678Z,24.90
2018-02-08T12:42:07.722Z,23.80
2018-02-08T12:43:07.658Z,27.20
2018-02-08T12:44:07.641Z,23.30
2018-02-08T12:45:07.658Z,24.30
2018-02-08T12:46:07.601Z,25.90
2018-02-08T12:47:07.607Z,22.90
2018-02-08T12:48:07.576Z,25.60
2018-02-08T12:49:07.559Z,25.90
2018-02-08T12:50:07.525Z,22.60
2018-02-08T12:51:07.544Z,25.10
2018-02-08T12:52:07.517Z,26.50
2018-02-08T12:53:07.542Z,25.80
2018-02-08T12:54:07.594Z,24.70
2018-02-08T12:55:07.571Z,24.90
2018-02-08T12:56:07.503Z,25.40
2018-02-08T12:57:07.605Z,28.30
2018-02-08T12:58:07.405Z,27.60
2018-02-08T12:59:07.419Z,26.90
2018-02-08T13:00:07.420Z,25.30
2018-02-08T13:01:07.346Z,29.40
2018-02-08T13:02:07.328Z,25.40
2018-02-08T13:03:07.383Z,29.00
2018-02-08T13:04:07.301Z,28.50
2018-02-08T13:05:07.311Z,28.20
2018-02-08T13:06:07.290Z,27.70
2018-02-08T13:07:07.258Z,26.20
2018-02-08T13:08:07.233Z,27.90